sensor_id;sensor_type;location;lat;lon;timestamp;P1;durP1;ratioP1;P2;durP2;ratioP2
7487;SDS011;3785;52.260;4.728;2023-09-08T00:02:11;6.38;;;4.70;;
7487;SDS011;3785;52.260;4.728;2023-09-08T00:05:32;6.28;;;4.95;;
7487;SDS011;3785;52.260;4.728;2023-09-08T00:08:53;6.38;;;4.57;;
7487;SDS011;3785;52.260;4.728;2023-09-08T00:12:14;6.10;;;4.25;;
7487;SDS011;3785;52.260;4.728;2023-09-08T00:15:36;5.75;;;4.63;;
7487;SDS011;3785;52.260;4.728;2023-09-08T00:18:57;6.63;;;5.07;;
7487;SDS011;3785;52.260;4.728;2023-09-08T00:22:18;6.18;;;4.75;;
7487;SDS011;3785;52.260;4.728;2023-09-08T00:25:39;6.72;;;5.20;;
7487;SDS011;3785;52.260;4.728;2023-09-08T00:29:00;6.97;;;5.07;;
7487;SDS011;3785;52.260;4.728;2023-09-08T00:32:21;5.80;;;4.38;;
7487;SDS011;3785;52.260;4.728;2023-09-08T00:35:48;7.13;;;5.18;;
7487;SDS011;3785;52.260;4.728;2023-09-08T00:39:10;5.82;;;4.72;;
7487;SDS011;3785;52.260;4.728;2023-09-08T00:42:31;5.78;;;4.57;;
7487;SDS011;3785;52.260;4.728;2023-09-08T00:45:51;7.05;;;5.15;;
7487;SDS011;3785;52.260;4.728;2023-09-08T00:49:14;6.03;;;5.00;;
7487;SDS011;3785;52.260;4.728;2023-09-08T00:52:35;6.75;;;4.95;;
7487;SDS011;3785;52.260;4.728;2023-09-08T00:55:56;6.82;;;5.03;;
7487;SDS011;3785;52.260;4.728;2023-09-08T00:59:17;6.38;;;5.35;;
7487;SDS011;3785;52.260;4.728;2023-09-08T01:02:38;6.20;;;5.00;;
7487;SDS011;3785;52.260;4.728;2023-09-08T01:05:59;7.10;;;5.40;;
7487;SDS011;3785;52.260;4.728;2023-09-08T01:09:20;7.10;;;4.68;;
7487;SDS011;3785;52.260;4.728;2023-09-08T01:12:41;7.13;;;5.13;;
7487;SDS011;3785;52.260;4.728;2023-09-08T01:16:02;5.55;;;4.70;;
7487;SDS011;3785;52.260;4.728;2023-09-08T01:19:23;7.30;;;5.45;;
7487;SDS011;3785;52.260;4.728;2023-09-08T01:22:45;7.55;;;5.40;;
7487;SDS011;3785;52.260;4.728;2023-09-08T01:26:12;6.70;;;4.97;;
7487;SDS011;3785;52.260;4.728;2023-09-08T01:29:35;7.07;;;5.25;;
7487;SDS011;3785;52.260;4.728;2023-09-08T01:32:56;8.82;;;5.95;;
7487;SDS011;3785;52.260;4.728;2023-09-08T01:36:17;6.95;;;4.90;;
7487;SDS011;3785;52.260;4.728;2023-09-08T01:39:38;7.90;;;5.75;;
7487;SDS011;3785;52.260;4.728;2023-09-08T01:42:59;8.15;;;5.55;;
7487;SDS011;3785;52.260;4.728;2023-09-08T01:46:20;7.60;;;6.32;;
7487;SDS011;3785;52.260;4.728;2023-09-08T01:49:41;8.75;;;5.80;;
7487;SDS011;3785;52.260;4.728;2023-09-08T01:53:02;8.18;;;5.70;;
7487;SDS011;3785;52.260;4.728;2023-09-08T01:56:23;7.13;;;5.38;;
7487;SDS011;3785;52.260;4.728;2023-09-08T01:59:44;9.25;;;6.03;;
7487;SDS011;3785;52.260;4.728;2023-09-08T02:03:05;8.15;;;6.25;;
7487;SDS011;3785;52.260;4.728;2023-09-08T02:06:26;9.18;;;6.60;;
7487;SDS011;3785;52.260;4.728;2023-09-08T02:09:47;7.45;;;5.63;;
7487;SDS011;3785;52.260;4.728;2023-09-08T02:13:08;8.73;;;6.68;;
7487;SDS011;3785;52.260;4.728;2023-09-08T02:16:29;7.72;;;6.13;;
7487;SDS011;3785;52.260;4.728;2023-09-08T02:19:49;10.60;;;6.40;;
7487;SDS011;3785;52.260;4.728;2023-09-08T02:23:10;7.28;;;6.05;;
7487;SDS011;3785;52.260;4.728;2023-09-08T02:26:31;9.50;;;6.72;;
7487;SDS011;3785;52.260;4.728;2023-09-08T02:29:53;9.35;;;7.28;;
7487;SDS011;3785;52.260;4.728;2023-09-08T02:33:14;8.50;;;6.63;;
7487;SDS011;3785;52.260;4.728;2023-09-08T02:36:35;8.75;;;6.45;;
7487;SDS011;3785;52.260;4.728;2023-09-08T02:39:56;9.77;;;6.90;;
7487;SDS011;3785;52.260;4.728;2023-09-08T02:43:17;10.30;;;6.72;;
7487;SDS011;3785;52.260;4.728;2023-09-08T02:46:38;10.38;;;6.97;;
7487;SDS011;3785;52.260;4.728;2023-09-08T02:49:59;8.65;;;6.72;;
7487;SDS011;3785;52.260;4.728;2023-09-08T02:53:20;9.45;;;6.85;;
7487;SDS011;3785;52.260;4.728;2023-09-08T02:56:41;9.95;;;7.00;;
7487;SDS011;3785;52.260;4.728;2023-09-08T03:00:03;9.82;;;7.20;;
7487;SDS011;3785;52.260;4.728;2023-09-08T03:03:24;10.20;;;7.15;;
7487;SDS011;3785;52.260;4.728;2023-09-08T03:06:45;9.63;;;6.95;;
7487;SDS011;3785;52.260;4.728;2023-09-08T03:10:06;12.32;;;7.93;;
7487;SDS011;3785;52.260;4.728;2023-09-08T03:13:27;9.82;;;7.35;;
7487;SDS011;3785;52.260;4.728;2023-09-08T03:16:49;12.55;;;8.60;;
7487;SDS011;3785;52.260;4.728;2023-09-08T03:20:10;9.43;;;7.68;;
7487;SDS011;3785;52.260;4.728;2023-09-08T03:23:33;9.63;;;7.80;;
7487;SDS011;3785;52.260;4.728;2023-09-08T03:26:54;9.60;;;7.15;;
7487;SDS011;3785;52.260;4.728;2023-09-08T03:30:15;11.90;;;7.70;;
7487;SDS011;3785;52.260;4.728;2023-09-08T03:33:36;10.95;;;7.68;;
7487;SDS011;3785;52.260;4.728;2023-09-08T03:36:57;10.02;;;7.57;;
7487;SDS011;3785;52.260;4.728;2023-09-08T03:40:18;13.10;;;8.23;;
7487;SDS011;3785;52.260;4.728;2023-09-08T03:43:39;10.63;;;7.88;;
7487;SDS011;3785;52.260;4.728;2023-09-08T03:47:00;9.98;;;7.90;;
7487;SDS011;3785;52.260;4.728;2023-09-08T03:50:23;12.05;;;7.85;;
7487;SDS011;3785;52.260;4.728;2023-09-08T03:53:44;11.63;;;8.25;;
7487;SDS011;3785;52.260;4.728;2023-09-08T03:57:06;11.65;;;8.15;;
7487;SDS011;3785;52.260;4.728;2023-09-08T04:00:27;10.95;;;8.50;;
7487;SDS011;3785;52.260;4.728;2023-09-08T04:03:48;12.20;;;8.13;;
7487;SDS011;3785;52.260;4.728;2023-09-08T04:07:09;13.20;;;8.93;;
7487;SDS011;3785;52.260;4.728;2023-09-08T04:10:30;10.90;;;7.97;;
7487;SDS011;3785;52.260;4.728;2023-09-08T04:13:51;11.30;;;8.30;;
7487;SDS011;3785;52.260;4.728;2023-09-08T04:17:12;13.23;;;8.73;;
7487;SDS011;3785;52.260;4.728;2023-09-08T04:20:33;11.63;;;8.40;;
7487;SDS011;3785;52.260;4.728;2023-09-08T04:23:54;11.25;;;8.15;;
7487;SDS011;3785;52.260;4.728;2023-09-08T04:27:15;10.15;;;7.72;;
7487;SDS011;3785;52.260;4.728;2023-09-08T04:30:36;10.18;;;7.60;;
7487;SDS011;3785;52.260;4.728;2023-09-08T04:33:57;11.20;;;8.07;;
7487;SDS011;3785;52.260;4.728;2023-09-08T04:37:18;12.95;;;8.90;;
7487;SDS011;3785;52.260;4.728;2023-09-08T04:40:42;12.00;;;8.77;;
7487;SDS011;3785;52.260;4.728;2023-09-08T04:44:05;11.75;;;8.15;;
7487;SDS011;3785;52.260;4.728;2023-09-08T04:47:26;12.48;;;8.55;;
7487;SDS011;3785;52.260;4.728;2023-09-08T04:50:47;11.23;;;8.35;;
7487;SDS011;3785;52.260;4.728;2023-09-08T04:54:08;11.80;;;8.68;;
7487;SDS011;3785;52.260;4.728;2023-09-08T04:57:29;11.85;;;8.75;;
7487;SDS011;3785;52.260;4.728;2023-09-08T05:00:50;12.18;;;8.27;;
7487;SDS011;3785;52.260;4.728;2023-09-08T05:04:11;10.82;;;8.10;;
7487;SDS011;3785;52.260;4.728;2023-09-08T05:07:32;11.65;;;8.30;;
7487;SDS011;3785;52.260;4.728;2023-09-08T05:10:53;12.23;;;8.77;;
7487;SDS011;3785;52.260;4.728;2023-09-08T05:14:14;11.65;;;8.20;;
7487;SDS011;3785;52.260;4.728;2023-09-08T05:17:35;11.82;;;7.95;;
7487;SDS011;3785;52.260;4.728;2023-09-08T05:20:56;10.05;;;7.90;;
7487;SDS011;3785;52.260;4.728;2023-09-08T05:24:17;11.80;;;8.13;;
7487;SDS011;3785;52.260;4.728;2023-09-08T05:27:38;11.45;;;8.25;;
7487;SDS011;3785;52.260;4.728;2023-09-08T05:30:59;14.35;;;8.20;;
7487;SDS011;3785;52.260;4.728;2023-09-08T05:34:20;12.70;;;8.82;;
7487;SDS011;3785;52.260;4.728;2023-09-08T05:37:41;10.98;;;7.90;;
7487;SDS011;3785;52.260;4.728;2023-09-08T05:41:02;10.65;;;8.18;;
7487;SDS011;3785;52.260;4.728;2023-09-08T05:44:23;11.82;;;7.70;;
7487;SDS011;3785;52.260;4.728;2023-09-08T05:47:48;15.68;;;8.55;;
7487;SDS011;3785;52.260;4.728;2023-09-08T05:51:11;13.30;;;8.85;;
7487;SDS011;3785;52.260;4.728;2023-09-08T05:54:34;13.45;;;8.43;;
7487;SDS011;3785;52.260;4.728;2023-09-08T05:57:55;11.30;;;8.27;;
7487;SDS011;3785;52.260;4.728;2023-09-08T06:01:16;13.13;;;8.75;;
7487;SDS011;3785;52.260;4.728;2023-09-08T06:04:37;11.07;;;8.45;;
7487;SDS011;3785;52.260;4.728;2023-09-08T06:08:00;10.70;;;8.25;;
7487;SDS011;3785;52.260;4.728;2023-09-08T06:11:25;12.40;;;8.60;;
7487;SDS011;3785;52.260;4.728;2023-09-08T06:14:47;13.07;;;8.48;;
7487;SDS011;3785;52.260;4.728;2023-09-08T06:18:08;13.30;;;8.88;;
7487;SDS011;3785;52.260;4.728;2023-09-08T06:21:33;15.73;;;8.25;;
7487;SDS011;3785;52.260;4.728;2023-09-08T06:24:58;12.40;;;8.77;;
7487;SDS011;3785;52.260;4.728;2023-09-08T06:28:19;10.82;;;8.32;;
7487;SDS011;3785;52.260;4.728;2023-09-08T06:31:43;11.70;;;8.07;;
7487;SDS011;3785;52.260;4.728;2023-09-08T06:35:04;12.20;;;8.95;;
7487;SDS011;3785;52.260;4.728;2023-09-08T06:38:25;13.30;;;9.30;;
7487;SDS011;3785;52.260;4.728;2023-09-08T06:41:47;10.93;;;7.80;;
7487;SDS011;3785;52.260;4.728;2023-09-08T06:45:13;10.45;;;8.27;;
7487;SDS011;3785;52.260;4.728;2023-09-08T06:48:47;11.35;;;8.65;;
7487;SDS011;3785;52.260;4.728;2023-09-08T06:52:08;12.15;;;8.32;;
7487;SDS011;3785;52.260;4.728;2023-09-08T06:55:29;11.88;;;8.13;;
7487;SDS011;3785;52.260;4.728;2023-09-08T06:58:51;13.77;;;8.30;;
7487;SDS011;3785;52.260;4.728;2023-09-08T07:02:12;12.73;;;8.90;;
7487;SDS011;3785;52.260;4.728;2023-09-08T07:05:35;13.00;;;8.57;;
7487;SDS011;3785;52.260;4.728;2023-09-08T07:08:56;11.93;;;8.85;;
7487;SDS011;3785;52.260;4.728;2023-09-08T07:12:17;11.77;;;8.85;;
7487;SDS011;3785;52.260;4.728;2023-09-08T07:15:41;9.75;;;7.70;;
7487;SDS011;3785;52.260;4.728;2023-09-08T07:19:20;12.07;;;8.80;;
7487;SDS011;3785;52.260;4.728;2023-09-08T07:22:42;10.32;;;8.27;;
7487;SDS011;3785;52.260;4.728;2023-09-08T07:26:05;10.85;;;8.05;;
7487;SDS011;3785;52.260;4.728;2023-09-08T07:29:28;11.48;;;8.90;;
7487;SDS011;3785;52.260;4.728;2023-09-08T07:32:54;11.57;;;8.40;;
7487;SDS011;3785;52.260;4.728;2023-09-08T07:36:26;12.20;;;8.73;;
7487;SDS011;3785;52.260;4.728;2023-09-08T07:39:48;11.75;;;8.77;;
7487;SDS011;3785;52.260;4.728;2023-09-08T07:43:09;11.80;;;8.88;;
7487;SDS011;3785;52.260;4.728;2023-09-08T07:46:43;11.73;;;9.25;;
7487;SDS011;3785;52.260;4.728;2023-09-08T07:53:47;11.15;;;8.18;;
7487;SDS011;3785;52.260;4.728;2023-09-08T07:57:08;13.65;;;9.55;;
7487;SDS011;3785;52.260;4.728;2023-09-08T08:00:32;11.77;;;8.88;;
7487;SDS011;3785;52.260;4.728;2023-09-08T08:03:56;11.32;;;8.57;;
7487;SDS011;3785;52.260;4.728;2023-09-08T08:07:17;12.55;;;9.35;;
7487;SDS011;3785;52.260;4.728;2023-09-08T08:10:38;11.13;;;8.82;;
7487;SDS011;3785;52.260;4.728;2023-09-08T08:13:58;12.30;;;9.38;;
7487;SDS011;3785;52.260;4.728;2023-09-08T08:17:20;11.65;;;9.07;;
7487;SDS011;3785;52.260;4.728;2023-09-08T08:20:42;12.52;;;9.27;;
7487;SDS011;3785;52.260;4.728;2023-09-08T08:24:03;12.90;;;9.43;;
7487;SDS011;3785;52.260;4.728;2023-09-08T08:27:25;11.38;;;9.05;;
7487;SDS011;3785;52.260;4.728;2023-09-08T08:30:46;12.15;;;9.45;;
7487;SDS011;3785;52.260;4.728;2023-09-08T08:34:07;13.13;;;8.98;;
7487;SDS011;3785;52.260;4.728;2023-09-08T08:37:29;11.55;;;8.48;;
7487;SDS011;3785;52.260;4.728;2023-09-08T08:40:50;14.02;;;9.60;;
7487;SDS011;3785;52.260;4.728;2023-09-08T08:44:11;12.25;;;9.60;;
7487;SDS011;3785;52.260;4.728;2023-09-08T08:47:33;12.13;;;8.27;;
7487;SDS011;3785;52.260;4.728;2023-09-08T08:50:56;12.25;;;8.43;;
7487;SDS011;3785;52.260;4.728;2023-09-08T08:54:19;11.88;;;8.82;;
7487;SDS011;3785;52.260;4.728;2023-09-08T08:57:43;13.15;;;9.10;;
7487;SDS011;3785;52.260;4.728;2023-09-08T09:01:07;11.68;;;8.73;;
7487;SDS011;3785;52.260;4.728;2023-09-08T09:04:45;12.98;;;8.80;;
7487;SDS011;3785;52.260;4.728;2023-09-08T09:08:07;11.70;;;8.95;;
7487;SDS011;3785;52.260;4.728;2023-09-08T09:11:29;12.23;;;9.00;;
7487;SDS011;3785;52.260;4.728;2023-09-08T09:14:54;12.73;;;9.23;;
7487;SDS011;3785;52.260;4.728;2023-09-08T09:18:16;13.30;;;9.57;;
7487;SDS011;3785;52.260;4.728;2023-09-08T09:21:48;12.48;;;9.55;;
7487;SDS011;3785;52.260;4.728;2023-09-08T09:25:32;14.18;;;10.70;;
7487;SDS011;3785;52.260;4.728;2023-09-08T09:28:54;13.57;;;10.05;;
7487;SDS011;3785;52.260;4.728;2023-09-08T09:32:16;12.50;;;9.43;;
7487;SDS011;3785;52.260;4.728;2023-09-08T09:35:41;14.38;;;9.93;;
7487;SDS011;3785;52.260;4.728;2023-09-08T09:39:03;13.50;;;9.60;;
7487;SDS011;3785;52.260;4.728;2023-09-08T09:42:25;13.93;;;10.90;;
7487;SDS011;3785;52.260;4.728;2023-09-08T09:45:48;16.45;;;10.20;;
7487;SDS011;3785;52.260;4.728;2023-09-08T09:49:13;15.23;;;11.77;;
7487;SDS011;3785;52.260;4.728;2023-09-08T09:52:38;14.35;;;10.88;;
7487;SDS011;3785;52.260;4.728;2023-09-08T09:55:59;15.63;;;11.45;;
7487;SDS011;3785;52.260;4.728;2023-09-08T09:59:20;15.98;;;12.35;;
7487;SDS011;3785;52.260;4.728;2023-09-08T10:02:42;16.23;;;11.95;;
7487;SDS011;3785;52.260;4.728;2023-09-08T10:06:03;16.60;;;12.48;;
7487;SDS011;3785;52.260;4.728;2023-09-08T10:09:24;16.50;;;12.23;;
7487;SDS011;3785;52.260;4.728;2023-09-08T10:12:46;15.27;;;10.98;;
7487;SDS011;3785;52.260;4.728;2023-09-08T10:16:09;14.68;;;10.85;;
7487;SDS011;3785;52.260;4.728;2023-09-08T10:19:33;14.82;;;11.15;;
7487;SDS011;3785;52.260;4.728;2023-09-08T10:23:06;16.38;;;11.77;;
7487;SDS011;3785;52.260;4.728;2023-09-08T10:26:29;16.00;;;11.55;;
7487;SDS011;3785;52.260;4.728;2023-09-08T10:29:50;16.08;;;11.70;;
7487;SDS011;3785;52.260;4.728;2023-09-08T10:33:12;16.75;;;11.38;;
7487;SDS011;3785;52.260;4.728;2023-09-08T10:36:34;14.25;;;10.57;;
7487;SDS011;3785;52.260;4.728;2023-09-08T10:39:56;15.02;;;10.52;;
7487;SDS011;3785;52.260;4.728;2023-09-08T10:43:17;15.27;;;11.30;;
7487;SDS011;3785;52.260;4.728;2023-09-08T10:46:39;13.60;;;10.90;;
7487;SDS011;3785;52.260;4.728;2023-09-08T10:50:00;14.50;;;10.20;;
7487;SDS011;3785;52.260;4.728;2023-09-08T10:53:22;15.40;;;11.13;;
7487;SDS011;3785;52.260;4.728;2023-09-08T10:56:55;16.35;;;10.60;;
7487;SDS011;3785;52.260;4.728;2023-09-08T11:00:17;15.95;;;11.15;;
7487;SDS011;3785;52.260;4.728;2023-09-08T11:07:00;13.73;;;9.57;;
7487;SDS011;3785;52.260;4.728;2023-09-08T11:10:22;13.52;;;9.65;;
7487;SDS011;3785;52.260;4.728;2023-09-08T11:13:43;12.13;;;9.70;;
7487;SDS011;3785;52.260;4.728;2023-09-08T11:17:07;12.70;;;9.80;;
7487;SDS011;3785;52.260;4.728;2023-09-08T11:20:28;13.55;;;9.52;;
7487;SDS011;3785;52.260;4.728;2023-09-08T11:23:49;13.05;;;9.45;;
7487;SDS011;3785;52.260;4.728;2023-09-08T11:27:11;13.05;;;9.45;;
7487;SDS011;3785;52.260;4.728;2023-09-08T11:30:32;14.70;;;10.73;;
7487;SDS011;3785;52.260;4.728;2023-09-08T11:33:54;15.63;;;11.75;;
7487;SDS011;3785;52.260;4.728;2023-09-08T11:37:17;14.02;;;11.18;;
7487;SDS011;3785;52.260;4.728;2023-09-08T11:40:38;18.83;;;11.68;;
7487;SDS011;3785;52.260;4.728;2023-09-08T11:43:59;14.02;;;10.57;;
7487;SDS011;3785;52.260;4.728;2023-09-08T11:47:20;15.98;;;10.70;;
7487;SDS011;3785;52.260;4.728;2023-09-08T11:50:41;13.65;;;9.98;;
7487;SDS011;3785;52.260;4.728;2023-09-08T11:54:03;16.00;;;11.52;;
7487;SDS011;3785;52.260;4.728;2023-09-08T11:57:24;16.27;;;11.48;;
7487;SDS011;3785;52.260;4.728;2023-09-08T12:00:45;16.02;;;12.30;;
7487;SDS011;3785;52.260;4.728;2023-09-08T12:04:16;15.40;;;11.52;;
7487;SDS011;3785;52.260;4.728;2023-09-08T12:07:37;13.95;;;10.88;;
7487;SDS011;3785;52.260;4.728;2023-09-08T12:10:58;13.82;;;10.95;;
7487;SDS011;3785;52.260;4.728;2023-09-08T12:14:19;13.82;;;10.88;;
7487;SDS011;3785;52.260;4.728;2023-09-08T12:17:47;14.27;;;11.55;;
7487;SDS011;3785;52.260;4.728;2023-09-08T12:21:08;14.73;;;11.05;;
7487;SDS011;3785;52.260;4.728;2023-09-08T12:24:49;10.73;;;9.13;;
7487;SDS011;3785;52.260;4.728;2023-09-08T12:28:10;12.40;;;9.73;;
7487;SDS011;3785;52.260;4.728;2023-09-08T12:31:31;14.57;;;11.85;;
7487;SDS011;3785;52.260;4.728;2023-09-08T12:34:52;11.93;;;9.57;;
7487;SDS011;3785;52.260;4.728;2023-09-08T12:38:13;14.23;;;10.50;;
7487;SDS011;3785;52.260;4.728;2023-09-08T12:41:34;12.60;;;10.38;;
7487;SDS011;3785;52.260;4.728;2023-09-08T12:44:55;9.90;;;8.23;;
7487;SDS011;3785;52.260;4.728;2023-09-08T12:48:16;12.27;;;9.23;;
7487;SDS011;3785;52.260;4.728;2023-09-08T12:51:37;13.40;;;9.82;;
7487;SDS011;3785;52.260;4.728;2023-09-08T12:54:58;10.73;;;8.60;;
7487;SDS011;3785;52.260;4.728;2023-09-08T12:58:19;11.65;;;9.82;;
7487;SDS011;3785;52.260;4.728;2023-09-08T13:01:40;12.35;;;10.05;;
7487;SDS011;3785;52.260;4.728;2023-09-08T13:05:02;13.07;;;10.10;;
7487;SDS011;3785;52.260;4.728;2023-09-08T13:08:23;12.32;;;9.48;;
7487;SDS011;3785;52.260;4.728;2023-09-08T13:11:44;12.38;;;9.50;;
7487;SDS011;3785;52.260;4.728;2023-09-08T13:15:05;10.57;;;8.00;;
7487;SDS011;3785;52.260;4.728;2023-09-08T13:18:26;12.15;;;8.32;;
7487;SDS011;3785;52.260;4.728;2023-09-08T13:21:47;11.25;;;8.60;;
7487;SDS011;3785;52.260;4.728;2023-09-08T13:25:08;10.02;;;8.40;;
7487;SDS011;3785;52.260;4.728;2023-09-08T13:28:29;10.57;;;7.70;;
7487;SDS011;3785;52.260;4.728;2023-09-08T13:31:50;10.63;;;7.47;;
7487;SDS011;3785;52.260;4.728;2023-09-08T13:35:11;7.53;;;5.20;;
7487;SDS011;3785;52.260;4.728;2023-09-08T13:38:32;8.07;;;5.82;;
7487;SDS011;3785;52.260;4.728;2023-09-08T13:41:53;7.28;;;6.50;;
7487;SDS011;3785;52.260;4.728;2023-09-08T13:45:14;7.45;;;5.65;;
7487;SDS011;3785;52.260;4.728;2023-09-08T13:48:35;8.77;;;5.90;;
7487;SDS011;3785;52.260;4.728;2023-09-08T13:51:56;7.50;;;5.28;;
7487;SDS011;3785;52.260;4.728;2023-09-08T13:55:17;8.85;;;6.50;;
7487;SDS011;3785;52.260;4.728;2023-09-08T13:58:43;9.32;;;6.28;;
7487;SDS011;3785;52.260;4.728;2023-09-08T14:02:05;8.73;;;6.53;;
7487;SDS011;3785;52.260;4.728;2023-09-08T14:05:26;8.88;;;7.10;;
7487;SDS011;3785;52.260;4.728;2023-09-08T14:08:47;6.72;;;5.78;;
7487;SDS011;3785;52.260;4.728;2023-09-08T14:12:08;8.45;;;6.25;;
7487;SDS011;3785;52.260;4.728;2023-09-08T14:15:29;10.45;;;6.85;;
7487;SDS011;3785;52.260;4.728;2023-09-08T14:18:50;8.50;;;6.82;;
7487;SDS011;3785;52.260;4.728;2023-09-08T14:22:12;7.30;;;6.25;;
7487;SDS011;3785;52.260;4.728;2023-09-08T14:25:33;6.85;;;5.38;;
7487;SDS011;3785;52.260;4.728;2023-09-08T14:28:54;7.25;;;5.55;;
7487;SDS011;3785;52.260;4.728;2023-09-08T14:32:15;7.07;;;4.78;;
7487;SDS011;3785;52.260;4.728;2023-09-08T14:35:40;8.18;;;5.88;;
7487;SDS011;3785;52.260;4.728;2023-09-08T14:39:02;8.25;;;5.20;;
7487;SDS011;3785;52.260;4.728;2023-09-08T14:42:23;6.60;;;5.38;;
7487;SDS011;3785;52.260;4.728;2023-09-08T14:45:44;6.75;;;5.10;;
7487;SDS011;3785;52.260;4.728;2023-09-08T14:49:05;6.32;;;5.28;;
7487;SDS011;3785;52.260;4.728;2023-09-08T14:52:26;7.53;;;5.20;;
7487;SDS011;3785;52.260;4.728;2023-09-08T14:55:47;5.90;;;4.75;;
7487;SDS011;3785;52.260;4.728;2023-09-08T14:59:08;7.30;;;5.25;;
7487;SDS011;3785;52.260;4.728;2023-09-08T15:02:30;5.90;;;4.60;;
7487;SDS011;3785;52.260;4.728;2023-09-08T15:05:51;6.00;;;5.18;;
7487;SDS011;3785;52.260;4.728;2023-09-08T15:09:12;3.95;;;3.00;;
7487;SDS011;3785;52.260;4.728;2023-09-08T15:12:33;4.70;;;3.63;;
7487;SDS011;3785;52.260;4.728;2023-09-08T15:15:54;4.55;;;3.17;;
7487;SDS011;3785;52.260;4.728;2023-09-08T15:19:15;3.70;;;3.30;;
7487;SDS011;3785;52.260;4.728;2023-09-08T15:22:36;4.78;;;4.07;;
7487;SDS011;3785;52.260;4.728;2023-09-08T15:25:57;4.57;;;3.17;;
7487;SDS011;3785;52.260;4.728;2023-09-08T15:29:18;4.82;;;3.90;;
7487;SDS011;3785;52.260;4.728;2023-09-08T15:32:40;4.25;;;3.53;;
7487;SDS011;3785;52.260;4.728;2023-09-08T15:36:01;3.90;;;3.17;;
7487;SDS011;3785;52.260;4.728;2023-09-08T15:39:22;3.97;;;3.05;;
7487;SDS011;3785;52.260;4.728;2023-09-08T15:42:43;3.40;;;2.75;;
7487;SDS011;3785;52.260;4.728;2023-09-08T15:46:04;4.60;;;2.95;;
7487;SDS011;3785;52.260;4.728;2023-09-08T15:49:25;4.05;;;3.00;;
7487;SDS011;3785;52.260;4.728;2023-09-08T15:52:46;4.38;;;2.90;;
7487;SDS011;3785;52.260;4.728;2023-09-08T15:56:07;5.38;;;3.30;;
7487;SDS011;3785;52.260;4.728;2023-09-08T15:59:29;3.88;;;3.22;;
7487;SDS011;3785;52.260;4.728;2023-09-08T16:02:50;4.00;;;3.30;;
7487;SDS011;3785;52.260;4.728;2023-09-08T16:06:11;3.78;;;2.88;;
7487;SDS011;3785;52.260;4.728;2023-09-08T16:09:33;3.55;;;2.67;;
7487;SDS011;3785;52.260;4.728;2023-09-08T16:12:54;4.28;;;2.85;;
7487;SDS011;3785;52.260;4.728;2023-09-08T16:16:17;3.67;;;2.60;;
7487;SDS011;3785;52.260;4.728;2023-09-08T16:19:38;3.25;;;2.53;;
7487;SDS011;3785;52.260;4.728;2023-09-08T16:22:59;2.90;;;2.20;;
7487;SDS011;3785;52.260;4.728;2023-09-08T16:26:20;3.42;;;2.28;;
7487;SDS011;3785;52.260;4.728;2023-09-08T16:29:41;2.78;;;2.30;;
7487;SDS011;3785;52.260;4.728;2023-09-08T16:33:02;2.75;;;2.10;;
7487;SDS011;3785;52.260;4.728;2023-09-08T16:36:23;2.80;;;2.20;;
7487;SDS011;3785;52.260;4.728;2023-09-08T16:39:44;2.90;;;2.10;;
7487;SDS011;3785;52.260;4.728;2023-09-08T16:43:05;2.80;;;2.13;;
7487;SDS011;3785;52.260;4.728;2023-09-08T16:46:26;2.33;;;1.90;;
7487;SDS011;3785;52.260;4.728;2023-09-08T16:49:47;2.28;;;1.67;;
7487;SDS011;3785;52.260;4.728;2023-09-08T16:53:08;4.15;;;2.28;;
7487;SDS011;3785;52.260;4.728;2023-09-08T16:56:29;2.03;;;1.65;;
7487;SDS011;3785;52.260;4.728;2023-09-08T16:59:50;3.75;;;2.05;;
7487;SDS011;3785;52.260;4.728;2023-09-08T17:03:11;2.83;;;2.13;;
7487;SDS011;3785;52.260;4.728;2023-09-08T17:06:32;2.47;;;1.80;;
7487;SDS011;3785;52.260;4.728;2023-09-08T17:09:53;2.35;;;1.95;;
7487;SDS011;3785;52.260;4.728;2023-09-08T17:13:14;2.17;;;1.83;;
7487;SDS011;3785;52.260;4.728;2023-09-08T17:16:35;2.75;;;2.20;;
7487;SDS011;3785;52.260;4.728;2023-09-08T17:19:56;2.85;;;1.90;;
7487;SDS011;3785;52.260;4.728;2023-09-08T17:23:18;2.65;;;1.90;;
7487;SDS011;3785;52.260;4.728;2023-09-08T17:26:40;4.68;;;2.13;;
7487;SDS011;3785;52.260;4.728;2023-09-08T17:30:01;3.20;;;2.10;;
7487;SDS011;3785;52.260;4.728;2023-09-08T17:33:22;2.67;;;2.28;;
7487;SDS011;3785;52.260;4.728;2023-09-08T17:36:43;2.90;;;2.20;;
7487;SDS011;3785;52.260;4.728;2023-09-08T17:40:05;2.17;;;1.70;;
7487;SDS011;3785;52.260;4.728;2023-09-08T17:43:26;2.50;;;1.83;;
7487;SDS011;3785;52.260;4.728;2023-09-08T17:46:47;5.40;;;1.95;;
7487;SDS011;3785;52.260;4.728;2023-09-08T17:50:09;2.97;;;2.30;;
7487;SDS011;3785;52.260;4.728;2023-09-08T17:53:30;2.92;;;2.10;;
7487;SDS011;3785;52.260;4.728;2023-09-08T17:56:56;2.80;;;2.35;;
7487;SDS011;3785;52.260;4.728;2023-09-08T18:00:18;3.38;;;2.30;;
7487;SDS011;3785;52.260;4.728;2023-09-08T18:03:39;3.65;;;2.47;;
7487;SDS011;3785;52.260;4.728;2023-09-08T18:07:00;3.53;;;2.65;;
7487;SDS011;3785;52.260;4.728;2023-09-08T18:10:23;3.65;;;2.65;;
7487;SDS011;3785;52.260;4.728;2023-09-08T18:13:44;3.95;;;3.10;;
7487;SDS011;3785;52.260;4.728;2023-09-08T18:17:05;4.82;;;3.63;;
7487;SDS011;3785;52.260;4.728;2023-09-08T18:20:27;6.60;;;5.28;;
7487;SDS011;3785;52.260;4.728;2023-09-08T18:23:48;7.15;;;5.75;;
7487;SDS011;3785;52.260;4.728;2023-09-08T18:27:09;9.32;;;6.90;;
7487;SDS011;3785;52.260;4.728;2023-09-08T18:30:30;11.65;;;8.88;;
7487;SDS011;3785;52.260;4.728;2023-09-08T18:33:51;12.95;;;10.02;;
7487;SDS011;3785;52.260;4.728;2023-09-08T18:37:12;18.73;;;14.48;;
7487;SDS011;3785;52.260;4.728;2023-09-08T18:40:33;23.10;;;17.52;;
7487;SDS011;3785;52.260;4.728;2023-09-08T18:43:55;25.25;;;18.98;;
7487;SDS011;3785;52.260;4.728;2023-09-08T18:47:16;28.83;;;21.50;;
7487;SDS011;3785;52.260;4.728;2023-09-08T18:50:37;33.85;;;25.15;;
7487;SDS011;3785;52.260;4.728;2023-09-08T18:53:58;35.38;;;24.58;;
7487;SDS011;3785;52.260;4.728;2023-09-08T18:57:19;38.00;;;26.08;;
7487;SDS011;3785;52.260;4.728;2023-09-08T19:00:44;37.05;;;26.40;;
7487;SDS011;3785;52.260;4.728;2023-09-08T19:04:05;37.95;;;25.80;;
7487;SDS011;3785;52.260;4.728;2023-09-08T19:07:26;38.85;;;27.00;;
7487;SDS011;3785;52.260;4.728;2023-09-08T19:10:47;37.45;;;27.23;;
7487;SDS011;3785;52.260;4.728;2023-09-08T19:14:08;43.22;;;27.77;;
7487;SDS011;3785;52.260;4.728;2023-09-08T19:17:29;43.55;;;29.52;;
7487;SDS011;3785;52.260;4.728;2023-09-08T19:20:50;41.90;;;27.55;;
7487;SDS011;3785;52.260;4.728;2023-09-08T19:24:11;43.40;;;28.92;;
7487;SDS011;3785;52.260;4.728;2023-09-08T19:27:33;42.40;;;28.40;;
7487;SDS011;3785;52.260;4.728;2023-09-08T19:30:54;41.30;;;28.70;;
7487;SDS011;3785;52.260;4.728;2023-09-08T19:34:15;41.83;;;28.58;;
7487;SDS011;3785;52.260;4.728;2023-09-08T19:37:36;44.47;;;29.63;;
7487;SDS011;3785;52.260;4.728;2023-09-08T19:41:03;42.80;;;29.73;;
7487;SDS011;3785;52.260;4.728;2023-09-08T19:44:24;46.58;;;29.33;;
7487;SDS011;3785;52.260;4.728;2023-09-08T19:47:45;48.35;;;31.30;;
7487;SDS011;3785;52.260;4.728;2023-09-08T19:51:06;51.08;;;31.83;;
7487;SDS011;3785;52.260;4.728;2023-09-08T19:54:27;49.03;;;31.58;;
7487;SDS011;3785;52.260;4.728;2023-09-08T19:57:49;49.72;;;32.60;;
7487;SDS011;3785;52.260;4.728;2023-09-08T20:01:10;49.65;;;31.88;;
7487;SDS011;3785;52.260;4.728;2023-09-08T20:04:36;46.00;;;30.15;;
7487;SDS011;3785;52.260;4.728;2023-09-08T20:07:59;48.80;;;33.13;;
7487;SDS011;3785;52.260;4.728;2023-09-08T20:11:21;51.35;;;33.40;;
7487;SDS011;3785;52.260;4.728;2023-09-08T20:14:42;55.85;;;34.95;;
7487;SDS011;3785;52.260;4.728;2023-09-08T20:18:03;55.08;;;35.58;;
7487;SDS011;3785;52.260;4.728;2023-09-08T20:21:24;51.25;;;35.03;;
7487;SDS011;3785;52.260;4.728;2023-09-08T20:24:45;51.15;;;33.28;;
7487;SDS011;3785;52.260;4.728;2023-09-08T20:28:06;56.00;;;35.10;;
7487;SDS011;3785;52.260;4.728;2023-09-08T20:31:27;58.17;;;36.95;;
7487;SDS011;3785;52.260;4.728;2023-09-08T20:34:48;54.33;;;36.05;;
7487;SDS011;3785;52.260;4.728;2023-09-08T20:38:09;56.75;;;35.63;;
7487;SDS011;3785;52.260;4.728;2023-09-08T20:41:32;62.72;;;37.88;;
7487;SDS011;3785;52.260;4.728;2023-09-08T20:44:53;63.22;;;37.63;;